Scroll for more >

River gauges, storages, and weirs in the Murray–Darling Basin

Type Locationsort descending River Water level Flow Volume Release Water temp Salinity Rainfall
River Gauge Albury (Union Bridge) Murray 1.12 m 20/08/2018 13:45 Not measured Not measured Not measured 8.8°C 20/08/2018 13:45 45.8 μS/cm 20/08/2018 13:45 Not measured Full data
River Gauge Balranald Murrumbidgee 1.4 m 20/08/2018 10:45 912 ML/Day 20/08/2018 10:45 Not measured Not measured 10.5°C 20/08/2018 10:45 214.1 μS/cm 20/08/2018 10:45 Not measured Full data
River Gauge Bandiana Kiewa 2.13 m 20/08/2018 13:45 2249 ML/Day 20/08/2018 13:45 Not measured Not measured 8.1°C 20/08/2018 13:45 50.0 μS/cm 20/08/2018 13:45 Not measured Full data
River Gauge Biggara Murray 0.7 m 20/08/2018 13:45 1154 ML/Day 20/08/2018 13:45 Not measured Not measured 6.5°C 20/08/2018 13:45 46.8 μS/cm 20/08/2018 13:45 2.2 mm 20/08/2018 9:00 Full data
River Gauge Bringenbrong Bridge Murray 1.86 m 20/08/2018 14:00 6159 ML/Day 20/08/2018 14:00 Not measured Not measured Not measured Not measured Not measured Full data
River Gauge Burtundy Darling 0.7 m 20/08/2018 13:45 79 ML/Day 20/08/2018 13:45 Not measured Not measured 12.6°C 20/08/2018 13:45 735.2 μS/cm 20/08/2018 13:45 Not measured Full data
River Gauge Colemans Mitta 2.05 m 20/08/2018 14:15 3717 ML/Day 20/08/2018 14:15 Not measured Not measured 8.8°C 20/08/2018 13:45 40.3 μS/cm 20/08/2018 13:45 Not measured Full data
River Gauge Colignan Murray 1.63 m 20/08/2018 13:45 4757 ML/Day 20/08/2018 13:45 Not measured Not measured 11.2°C 20/08/2018 13:45 134.7 μS/cm 20/08/2018 13:45 Not measured Full data
River Gauge Corowa Murray 1.83 m 20/08/2018 13:45 7017 ML/Day 20/08/2018 13:45 Not measured Not measured 9.3°C 20/08/2018 13:45 45.9 μS/cm 20/08/2018 13:45 Not measured Full data
Storage Dartmouth Dam Mitta 479.79 m 20/08/2018 14:15 Not measured 3462 GL 20/08/2018 14:15 Not measured Not measured Not measured Not measured Full data
River Gauge Doctors Point Murray 2.05 m 20/08/2018 13:45 4695 ML/Day 20/08/2018 13:45 Not measured Not measured 9.4°C 20/08/2018 13:45 56.7 μS/cm 20/08/2018 13:45 Not measured Full data
River Gauge Echuca Wharf Murray 86.87 m 20/08/2018 12:45 Not measured Not measured Not measured Not measured Not measured Not measured Full data
River Gauge Edward Escape Wakool 0.73 m 20/08/2018 13:45 670 ML/Day 20/08/2018 13:45 Not measured Not measured 10.2°C 20/08/2018 13:45 63.9 μS/cm 20/08/2018 13:45 Not measured Full data
River Gauge Edward River Offtake Murray 2.41 m 20/08/2018 14:00 1576 ML/Day 20/08/2018 14:00 Not measured Not measured 10.2°C 20/08/2018 13:45 40.5 μS/cm 20/08/2018 13:45 Not measured Full data
Weirs Euston Weir Downstream Murray 42.98 m 20/08/2018 13:45 5333 ML/Day 20/08/2018 13:45 Not measured Not measured 11.4°C 20/08/2018 13:45 116.4 μS/cm 20/08/2018 13:45 Not measured Full data
Weirs Euston Weir Upstream Murray 47.52 m 20/08/2018 8:45 Not measured 36 GL 20/08/2018 7:45 Not measured Not measured Not measured 0.0 mm 18/08/2018 9:00 Full data
River Gauge Flow to South Australia Murray Not measured Not measured Not measured 4201.8 ML/d20/08/2018 7:45 Not measured Not measured Not measured Full data
River Gauge Frenchman Creek Murray 27.33 m 20/08/2018 7:45 Not measured Not measured 698.0 ML/d20/08/2018 7:45 Not measured Not measured Not measured Full data
River Gauge Gulpa Creek Offtake Murray 2.47 m 20/08/2018 12:45 328 ML/Day 20/08/2018 12:45 Not measured Not measured Not measured Not measured Not measured Full data
River Gauge Hinnomunjie Mitta 0.99 m 20/08/2018 13:45 1257 ML/Day 20/08/2018 13:45 Not measured Not measured 5.1°C 20/08/2018 13:45 35.3 μS/cm 20/08/2018 13:45 1.0 mm 20/08/2018 9:00 Full data
Storage Hume Dam Murray 182.7 m 20/08/2018 14:15 Not measured 1464 GL 20/08/2018 14:15 2336.0 ML/d20/08/2018 8:00 Not measured Not measured 0.0 mm 20/08/2018 9:00 Full data
River Gauge Jingellic Murray 2.05 m 20/08/2018 13:45 7460 ML/Day 20/08/2018 13:45 Not measured Not measured 7.4°C 20/08/2018 13:45 37.8 μS/cm 20/08/2018 13:45 0.4 mm 20/08/2018 9:00 Full data
River Gauge Kerang Loddon 0.31 m 20/08/2018 13:45 79 ML/Day 20/08/2018 13:45 Not measured Not measured 10.2°C 20/08/2018 13:45 133.3 μS/cm 20/08/2018 13:45 Not measured Full data
River Gauge Lake Albert Murray 0.88 m 20/08/2018 5:45 Not measured 286 GL 31/07/2018 5:45 Not measured Not measured Not measured Not measured Full data
River Gauge Lake Alexandrina Murray 0.81 m 20/08/2018 5:45 Not measured 1649 GL 20/08/2018 5:45 Not measured Not measured 849.4 μS/cm 20/08/2018 12:45 Not measured Full data
Storage Lake Victoria Murray 23.98 m 20/08/2018 12:45 Not measured 342 GL 20/08/2018 12:45 Not measured 10.7°C 20/08/2018 12:45 179.1 μS/cm 20/08/2018 12:45 Not measured Full data
Weirs Lock 1 Downstream Murray 0.71 m 20/08/2018 12:45 Not measured Not measured 2370.8 ML/d20/08/2018 7:45 Not measured Not measured Not measured Full data
Weirs Lock 1 Upstream Murray 3.2 m 20/08/2018 12:45 Not measured Not measured Not measured 11.9°C 20/08/2018 12:45 226.4 μS/cm 20/08/2018 12:45 Not measured Full data
Weirs Lock 2 Downstream Murray 3.24 m 20/08/2018 12:45 Not measured Not measured Not measured Not measured Not measured Not measured Full data
Weirs Lock 2 Upstream Murray 6.48 m 20/08/2018 12:45 Not measured Not measured Not measured 12.0°C 20/08/2018 12:45 233.8 μS/cm 20/08/2018 12:45 Not measured Full data
Weirs Lock 3 Downstream Murray 6.57 m 20/08/2018 12:45 Not measured Not measured Not measured Not measured Not measured Not measured Full data
Weirs Lock 3 Upstream Murray 9.8 m 20/08/2018 12:45 Not measured Not measured Not measured Not measured Not measured Not measured Full data
Weirs Lock 4 Downstream Murray 10.16 m 20/08/2018 12:45 Not measured Not measured Not measured Not measured Not measured Not measured Full data
Weirs Lock 4 Upstream Murray 13.24 m 20/08/2018 12:45 Not measured Not measured Not measured Not measured Not measured Not measured Full data
Weirs Lock 5 Downstream Murray 13.31 m 20/08/2018 12:45 Not measured Not measured Not measured Not measured Not measured Not measured Full data
Weirs Lock 5 Upstream Murray 16.53 m 20/08/2018 12:45 Not measured Not measured Not measured 12.1°C 20/08/2018 12:45 176.9 μS/cm 20/08/2018 12:45 Not measured Full data
Weirs Lock 6 Downstream Murray 16.51 m 20/08/2018 12:45 Not measured Not measured Not measured Not measured Not measured Not measured Full data
Weirs Lock 6 Upstream Murray 19.26 m 20/08/2018 12:45 Not measured Not measured Not measured 11.5°C 20/08/2018 12:45 170.1 μS/cm 20/08/2018 12:45 Not measured Full data
Weirs Lock 7 Downstream Murray 19.99 m 20/08/2018 12:45 Not measured Not measured Not measured Not measured Not measured Not measured Full data
Weirs Lock 7 Upstream Murray 22.01 m 20/08/2018 12:45 Not measured Not measured Not measured 12.1°C 20/08/2018 12:45 127.2 μS/cm 20/08/2018 12:45 Not measured Full data
Weirs Lock 8 Upstream Murray 24.29 m 20/08/2018 12:45 Not measured Not measured Not measured 11.9°C 20/08/2018 12:45 113.4 μS/cm 20/08/2018 12:45 Not measured Full data
Weirs Lock 9 Downstream Murray 24.31 m 20/08/2018 12:45 Not measured Not measured Not measured Not measured Not measured Not measured Full data
Weirs Lock 9 Upstream Murray 27.32 m 20/08/2018 12:45 Not measured Not measured Not measured 11.9°C 20/08/2018 12:45 125.5 μS/cm 20/08/2018 12:45 Not measured Full data
River Gauge McCoy Bridge Goulburn 1.74 m 20/08/2018 13:45 1378 ML/Day 20/08/2018 13:45 Not measured Not measured 10.0°C 20/08/2018 13:45 92.8 μS/cm 20/08/2018 13:45 Not measured Full data
Storage Menindee Lakes Darling Not measured Not measured 184 GL 20/08/2018 7:45 Not measured Not measured Not measured Not measured Full data
Weirs Mildura Weir downstream Murray 30.94 m 20/08/2018 13:45 Not measured Not measured Not measured 12.5°C 20/08/2018 13:45 192.4 μS/cm 20/08/2018 13:45 Not measured Full data
River Gauge Morgan Downstream Murray Not measured Not measured Not measured 1049.5 ML/d20/08/2018 12:45 Not measured 230.3 μS/cm 20/08/2018 12:45 Not measured Full data
River Gauge Mulwala Canal Murray Not measured Not measured Not measured 2908.1 ML/d20/08/2018 7:45 Not measured Not measured Not measured Full data
River Gauge Mundoo Barrage Murray 0.78 m 20/08/2018 7:45 Not measured Not measured Not measured Not measured Not measured Not measured Full data
River Gauge Murray Bridge Murray 0.76 m 20/08/2018 12:45 Not measured Not measured Not measured 11.8°C 20/08/2018 12:45 407.7 μS/cm 20/08/2018 12:45 Not measured Full data
River Gauge Peechelba Ovens 129.19 m 20/08/2018 13:45 8574 ML/Day 20/08/2018 13:45 Not measured Not measured 9.0°C 20/08/2018 13:45 35.8 μS/cm 20/08/2018 13:45 Not measured Full data
River Gauge Pinegrove Murray 1.51 m 20/08/2018 14:00 806 ML/Day 20/08/2018 14:00 Not measured Not measured 6.0°C 20/08/2018 14:00 106.5 μS/cm 20/08/2018 14:00 1.2 mm 20/08/2018 9:00 Full data
River Gauge Rochester Campaspe 1.73 m 20/08/2018 13:45 91 ML/Day 20/08/2018 13:45 Not measured Not measured 7.6°C 20/08/2018 13:45 822.9 μS/cm 20/08/2018 13:45 0.0 mm 20/08/2018 9:00 Full data
River Gauge Rufus River Murray 20.2 m 20/08/2018 7:45 Not measured Not measured 1519.2 ML/d20/08/2018 7:45 Not measured 182.1 μS/cm 20/08/2018 12:45 Not measured Full data
Weirs Steven's Weir Downstream Wakool 2.04 m 20/08/2018 10:45 2052 ML/Day 20/08/2018 10:45 Not measured Not measured 10.4°C 20/08/2018 10:45 38.1 μS/cm 20/08/2018 10:45 0.0 mm 2/05/2018 9:00 Full data
Weirs Steven's Weir Upstream Wakool 4.48 m 20/08/2018 14:00 Not measured Not measured Not measured Not measured Not measured Not measured Full data
River Gauge Stoney Crossing Murray 1.2 m 20/08/2018 13:45 124 ML/Day 20/08/2018 13:45 Not measured 143.9 ML/d20/08/2018 7:45 11.8°C 20/08/2018 13:45 487.8 μS/cm 20/08/2018 13:45 Not measured Full data
River Gauge Swan Hill Murray 1.09 m 20/08/2018 13:45 5163 ML/Day 20/08/2018 13:45 Not measured Not measured 10.7°C 20/08/2018 13:45 78.4 μS/cm 20/08/2018 13:45 Not measured Full data
River Gauge Tallandoon Mitta 2.55 m 20/08/2018 13:45 4526 ML/Day 20/08/2018 13:45 Not measured Not measured 8.5°C 20/08/2018 13:45 40.8 μS/cm 20/08/2018 13:45 Not measured Full data
River Gauge Tauwitchere Barrage Murray 0.8 m 20/08/2018 12:45 Not measured Not measured Not measured Not measured Not measured Not measured Full data
River Gauge Tocumwal Murray 2.2 m 20/08/2018 13:45 9310 ML/Day 20/08/2018 13:45 Not measured Not measured 9.3°C 20/08/2018 13:45 48.6 μS/cm 20/08/2018 13:45 Not measured Full data
River Gauge Torrumbarry Headworks Murray 85.17 m 20/08/2018 13:45 Not measured Not measured 2607.7 ML/d20/08/2018 13:45 Not measured Not measured Not measured Full data
Weirs Torrumbarry Weir Downstream Murray 1.77 m 20/08/2018 13:45 4729 ML/Day 20/08/2018 13:45 Not measured Not measured 10.4°C 20/08/2018 13:45 80.5 μS/cm 20/08/2018 13:45 Not measured Full data
Weirs Torrumbarry Weir Upstream Murray 86.05 m 20/08/2018 13:30 Not measured 37 GL 20/08/2018 8:45 Not measured 10.0°C 20/08/2018 8:45 86.5 μS/cm 20/08/2018 8:45 0.0 mm 20/08/2018 9:00 Full data
River Gauge Wakool Canal Wakool 0.58 m 20/08/2018 13:45 Not measured Not measured 427.0 ML/d20/08/2018 8:45 Not measured Not measured Not measured Full data
River Gauge Wakool Junction Murray 2.46 m 20/08/2018 13:45 5571 ML/Day 20/08/2018 13:45 Not measured Not measured 11.1°C 20/08/2018 13:45 105.5 μS/cm 20/08/2018 13:45 Not measured Full data
River Gauge Weir 32 Upstream Darling 1.35 m 20/08/2018 9:45 214 ML/Day 20/08/2018 9:45 Not measured Not measured 11.6°C 20/08/2018 9:45 792.8 μS/cm 20/08/2018 9:45 Not measured Full data
Weirs Wentworth Weir Murray 27.5 m 20/08/2018 13:45 Not measured Not measured 3814.0 ML/d20/08/2018 8:45 Not measured 134.0 μS/cm 20/08/2018 7:45 0.0 mm 19/08/2018 9:00 Full data
River Gauge Wilcania Darling -0.06 m 20/08/2018 13:45 5 ML/Day 20/08/2018 13:45 Not measured Not measured 16.1°C 20/08/2018 14:00 0.0 μS/cm 20/08/2018 13:45 Not measured Full data
River Gauge Yarrawonga Main Channel Murray 123.97 m 20/08/2018 13:45 Not measured Not measured 1657.7 ML/d20/08/2018 13:45 Not measured Not measured Not measured Full data
Weirs Yarrawonga Weir Downstream Murray 1.6 m 20/08/2018 14:00 9504 ML/Day 20/08/2018 14:00 Not measured Not measured 9.7°C 20/08/2018 14:00 35.9 μS/cm 20/08/2018 14:00 Not measured Full data
Weirs Yarrawonga Weir Upstream Murray 124.87 m 20/08/2018 13:45 Not measured Not measured Not measured Not measured Not measured 0.0 mm 20/08/2018 9:00 Full data